sensor_id;sensor_type;location;lat;lon;timestamp;P1;durP1;ratioP1;P2;durP2;ratioP2
46729;SDS011;32476;50.002;11.854;2024-03-06T00:02:28;25.97;;;12.83;;
46729;SDS011;32476;50.002;11.854;2024-03-06T00:04:53;22.57;;;11.70;;
46729;SDS011;32476;50.002;11.854;2024-03-06T00:07:19;21.83;;;11.37;;
46729;SDS011;32476;50.002;11.854;2024-03-06T00:09:47;26.50;;;11.97;;
46729;SDS011;32476;50.002;11.854;2024-03-06T00:12:13;23.00;;;12.20;;
46729;SDS011;32476;50.002;11.854;2024-03-06T00:14:39;22.77;;;11.53;;
46729;SDS011;32476;50.002;11.854;2024-03-06T00:17:06;24.13;;;11.83;;
46729;SDS011;32476;50.002;11.854;2024-03-06T00:19:32;22.43;;;10.93;;
46729;SDS011;32476;50.002;11.854;2024-03-06T00:21:59;21.90;;;11.13;;
46729;SDS011;32476;50.002;11.854;2024-03-06T00:24:27;29.17;;;12.00;;
46729;SDS011;32476;50.002;11.854;2024-03-06T00:26:53;25.80;;;11.70;;
46729;SDS011;32476;50.002;11.854;2024-03-06T00:29:21;21.77;;;11.57;;
46729;SDS011;32476;50.002;11.854;2024-03-06T00:31:49;28.00;;;11.97;;
46729;SDS011;32476;50.002;11.854;2024-03-06T00:34:16;26.27;;;12.90;;
46729;SDS011;32476;50.002;11.854;2024-03-06T00:36:42;24.07;;;12.07;;
46729;SDS011;32476;50.002;11.854;2024-03-06T00:39:10;26.63;;;12.43;;
46729;SDS011;32476;50.002;11.854;2024-03-06T00:41:39;24.47;;;11.90;;
46729;SDS011;32476;50.002;11.854;2024-03-06T00:44:06;21.87;;;10.30;;
46729;SDS011;32476;50.002;11.854;2024-03-06T00:46:33;21.97;;;11.20;;
46729;SDS011;32476;50.002;11.854;2024-03-06T00:48:59;21.37;;;10.40;;
46729;SDS011;32476;50.002;11.854;2024-03-06T00:51:25;41.63;;;18.03;;
46729;SDS011;32476;50.002;11.854;2024-03-06T00:53:53;25.13;;;11.93;;
46729;SDS011;32476;50.002;11.854;2024-03-06T00:56:19;46.70;;;20.67;;
46729;SDS011;32476;50.002;11.854;2024-03-06T00:58:45;49.07;;;21.73;;
46729;SDS011;32476;50.002;11.854;2024-03-06T01:01:12;45.10;;;20.73;;
46729;SDS011;32476;50.002;11.854;2024-03-06T01:03:38;31.37;;;14.90;;
46729;SDS011;32476;50.002;11.854;2024-03-06T01:06:04;27.13;;;12.27;;
46729;SDS011;32476;50.002;11.854;2024-03-06T01:08:31;24.60;;;12.27;;
46729;SDS011;32476;50.002;11.854;2024-03-06T01:10:58;26.03;;;12.67;;
46729;SDS011;32476;50.002;11.854;2024-03-06T01:13:24;23.67;;;10.93;;
46729;SDS011;32476;50.002;11.854;2024-03-06T01:15:51;21.93;;;11.90;;
46729;SDS011;32476;50.002;11.854;2024-03-06T01:18:17;22.50;;;11.70;;
46729;SDS011;32476;50.002;11.854;2024-03-06T01:20:43;22.40;;;11.40;;
46729;SDS011;32476;50.002;11.854;2024-03-06T01:23:11;24.93;;;11.80;;
46729;SDS011;32476;50.002;11.854;2024-03-06T01:25:37;25.37;;;13.20;;
46729;SDS011;32476;50.002;11.854;2024-03-06T01:28:02;31.20;;;13.60;;
46729;SDS011;32476;50.002;11.854;2024-03-06T01:30:31;28.83;;;13.70;;
46729;SDS011;32476;50.002;11.854;2024-03-06T01:32:57;30.43;;;14.63;;
46729;SDS011;32476;50.002;11.854;2024-03-06T01:35:23;26.97;;;14.00;;
46729;SDS011;32476;50.002;11.854;2024-03-06T01:37:52;25.53;;;12.93;;
46729;SDS011;32476;50.002;11.854;2024-03-06T01:40:18;29.10;;;13.67;;
46729;SDS011;32476;50.002;11.854;2024-03-06T01:42:45;34.87;;;15.17;;
46729;SDS011;32476;50.002;11.854;2024-03-06T01:45:15;41.17;;;19.00;;
46729;SDS011;32476;50.002;11.854;2024-03-06T01:47:41;39.07;;;19.53;;
46729;SDS011;32476;50.002;11.854;2024-03-06T01:50:07;40.33;;;20.30;;
46729;SDS011;32476;50.002;11.854;2024-03-06T01:52:36;48.43;;;21.87;;
46729;SDS011;32476;50.002;11.854;2024-03-06T01:55:06;40.80;;;20.60;;
46729;SDS011;32476;50.002;11.854;2024-03-06T01:57:33;48.53;;;23.27;;
46729;SDS011;32476;50.002;11.854;2024-03-06T02:00:01;46.93;;;23.00;;
46729;SDS011;32476;50.002;11.854;2024-03-06T02:02:28;49.87;;;23.00;;
46729;SDS011;32476;50.002;11.854;2024-03-06T02:04:55;45.97;;;22.83;;
46729;SDS011;32476;50.002;11.854;2024-03-06T02:07:24;45.33;;;22.97;;
46729;SDS011;32476;50.002;11.854;2024-03-06T02:09:50;44.80;;;21.97;;
46729;SDS011;32476;50.002;11.854;2024-03-06T02:12:16;45.07;;;21.63;;
46729;SDS011;32476;50.002;11.854;2024-03-06T02:14:43;44.23;;;20.87;;
46729;SDS011;32476;50.002;11.854;2024-03-06T02:17:09;44.67;;;20.37;;
46729;SDS011;32476;50.002;11.854;2024-03-06T02:19:42;39.63;;;19.67;;
46729;SDS011;32476;50.002;11.854;2024-03-06T02:22:10;44.03;;;19.93;;
46729;SDS011;32476;50.002;11.854;2024-03-06T02:24:37;41.03;;;19.67;;
46729;SDS011;32476;50.002;11.854;2024-03-06T02:27:08;38.37;;;19.77;;
46729;SDS011;32476;50.002;11.854;2024-03-06T02:29:35;39.07;;;19.80;;
46729;SDS011;32476;50.002;11.854;2024-03-06T02:32:03;43.67;;;20.90;;
46729;SDS011;32476;50.002;11.854;2024-03-06T02:34:29;44.20;;;21.40;;
46729;SDS011;32476;50.002;11.854;2024-03-06T02:36:57;40.73;;;19.77;;
46729;SDS011;32476;50.002;11.854;2024-03-06T02:39:23;48.27;;;21.40;;
46729;SDS011;32476;50.002;11.854;2024-03-06T02:41:49;42.00;;;19.20;;
46729;SDS011;32476;50.002;11.854;2024-03-06T02:44:16;35.97;;;17.97;;
46729;SDS011;32476;50.002;11.854;2024-03-06T02:46:47;38.77;;;17.63;;
46729;SDS011;32476;50.002;11.854;2024-03-06T02:49:14;35.87;;;17.57;;
46729;SDS011;32476;50.002;11.854;2024-03-06T02:51:42;32.03;;;17.27;;
46729;SDS011;32476;50.002;11.854;2024-03-06T02:54:08;31.93;;;15.73;;
46729;SDS011;32476;50.002;11.854;2024-03-06T02:56:34;34.57;;;17.30;;
46729;SDS011;32476;50.002;11.854;2024-03-06T02:59:02;35.57;;;16.60;;
46729;SDS011;32476;50.002;11.854;2024-03-06T03:01:28;38.00;;;17.97;;
46729;SDS011;32476;50.002;11.854;2024-03-06T03:03:55;35.10;;;17.57;;
46729;SDS011;32476;50.002;11.854;2024-03-06T03:06:23;38.17;;;18.80;;
46729;SDS011;32476;50.002;11.854;2024-03-06T03:08:49;40.97;;;19.03;;
46729;SDS011;32476;50.002;11.854;2024-03-06T03:11:15;40.53;;;18.60;;
46729;SDS011;32476;50.002;11.854;2024-03-06T03:13:43;37.70;;;17.93;;
46729;SDS011;32476;50.002;11.854;2024-03-06T03:16:16;40.10;;;18.50;;
46729;SDS011;32476;50.002;11.854;2024-03-06T03:18:44;38.37;;;17.80;;
46729;SDS011;32476;50.002;11.854;2024-03-06T03:21:11;43.70;;;20.53;;
46729;SDS011;32476;50.002;11.854;2024-03-06T03:23:38;39.70;;;18.30;;
46729;SDS011;32476;50.002;11.854;2024-03-06T03:26:06;41.47;;;17.80;;
46729;SDS011;32476;50.002;11.854;2024-03-06T03:28:38;40.67;;;19.77;;
46729;SDS011;32476;50.002;11.854;2024-03-06T03:31:07;44.50;;;20.27;;
46729;SDS011;32476;50.002;11.854;2024-03-06T03:33:34;41.77;;;18.67;;
46729;SDS011;32476;50.002;11.854;2024-03-06T03:36:04;42.47;;;19.03;;
46729;SDS011;32476;50.002;11.854;2024-03-06T03:38:34;37.43;;;19.33;;
46729;SDS011;32476;50.002;11.854;2024-03-06T03:41:12;39.67;;;19.33;;
46729;SDS011;32476;50.002;11.854;2024-03-06T03:43:40;36.87;;;18.07;;
46729;SDS011;32476;50.002;11.854;2024-03-06T03:46:06;38.40;;;17.77;;
46729;SDS011;32476;50.002;11.854;2024-03-06T03:48:33;36.77;;;17.27;;
46729;SDS011;32476;50.002;11.854;2024-03-06T03:51:03;38.20;;;17.33;;
46729;SDS011;32476;50.002;11.854;2024-03-06T03:53:32;36.10;;;16.50;;
46729;SDS011;32476;50.002;11.854;2024-03-06T03:55:59;35.90;;;17.33;;
46729;SDS011;32476;50.002;11.854;2024-03-06T03:58:27;37.17;;;17.87;;
46729;SDS011;32476;50.002;11.854;2024-03-06T04:00:53;45.90;;;18.80;;
46729;SDS011;32476;50.002;11.854;2024-03-06T04:03:20;45.40;;;19.00;;
46729;SDS011;32476;50.002;11.854;2024-03-06T04:05:48;41.57;;;19.00;;
46729;SDS011;32476;50.002;11.854;2024-03-06T04:08:14;45.43;;;19.40;;
46729;SDS011;32476;50.002;11.854;2024-03-06T04:10:44;41.90;;;18.77;;
46729;SDS011;32476;50.002;11.854;2024-03-06T04:13:12;36.93;;;18.20;;
46729;SDS011;32476;50.002;11.854;2024-03-06T04:15:40;39.20;;;17.17;;
46729;SDS011;32476;50.002;11.854;2024-03-06T04:18:06;37.30;;;17.10;;
46729;SDS011;32476;50.002;11.854;2024-03-06T04:20:33;41.33;;;18.27;;
46729;SDS011;32476;50.002;11.854;2024-03-06T04:22:59;42.33;;;17.47;;
46729;SDS011;32476;50.002;11.854;2024-03-06T04:25:25;36.17;;;16.70;;
46729;SDS011;32476;50.002;11.854;2024-03-06T04:27:52;40.10;;;17.97;;
46729;SDS011;32476;50.002;11.854;2024-03-06T04:30:18;38.20;;;17.63;;
46729;SDS011;32476;50.002;11.854;2024-03-06T04:32:44;39.37;;;17.90;;
46729;SDS011;32476;50.002;11.854;2024-03-06T04:35:12;34.60;;;16.37;;
46729;SDS011;32476;50.002;11.854;2024-03-06T04:37:38;39.33;;;17.70;;
46729;SDS011;32476;50.002;11.854;2024-03-06T04:40:04;36.93;;;17.60;;
46729;SDS011;32476;50.002;11.854;2024-03-06T04:42:34;39.00;;;17.03;;
46729;SDS011;32476;50.002;11.854;2024-03-06T04:45:04;38.87;;;17.07;;
46729;SDS011;32476;50.002;11.854;2024-03-06T04:47:41;42.23;;;17.50;;
46729;SDS011;32476;50.002;11.854;2024-03-06T04:50:09;38.77;;;18.30;;
46729;SDS011;32476;50.002;11.854;2024-03-06T04:52:36;36.57;;;16.87;;
46729;SDS011;32476;50.002;11.854;2024-03-06T04:55:05;40.23;;;17.73;;
46729;SDS011;32476;50.002;11.854;2024-03-06T04:57:32;38.50;;;17.27;;
46729;SDS011;32476;50.002;11.854;2024-03-06T04:59:59;42.07;;;17.20;;
46729;SDS011;32476;50.002;11.854;2024-03-06T05:02:32;40.60;;;17.73;;
46729;SDS011;32476;50.002;11.854;2024-03-06T05:05:00;39.10;;;18.00;;
46729;SDS011;32476;50.002;11.854;2024-03-06T05:07:27;39.80;;;18.47;;
46729;SDS011;32476;50.002;11.854;2024-03-06T05:09:56;42.83;;;18.60;;
46729;SDS011;32476;50.002;11.854;2024-03-06T05:12:24;38.93;;;18.17;;
46729;SDS011;32476;50.002;11.854;2024-03-06T05:14:51;38.70;;;17.33;;
46729;SDS011;32476;50.002;11.854;2024-03-06T05:17:19;34.60;;;17.73;;
46729;SDS011;32476;50.002;11.854;2024-03-06T05:19:46;40.90;;;17.23;;
46729;SDS011;32476;50.002;11.854;2024-03-06T05:22:15;42.20;;;19.13;;
46729;SDS011;32476;50.002;11.854;2024-03-06T05:24:44;42.90;;;18.37;;
46729;SDS011;32476;50.002;11.854;2024-03-06T05:27:10;43.87;;;18.83;;
46729;SDS011;32476;50.002;11.854;2024-03-06T05:29:39;43.10;;;20.27;;
46729;SDS011;32476;50.002;11.854;2024-03-06T05:32:06;42.93;;;19.27;;
46729;SDS011;32476;50.002;11.854;2024-03-06T05:34:33;44.07;;;19.47;;
46729;SDS011;32476;50.002;11.854;2024-03-06T05:36:59;48.63;;;21.53;;
46729;SDS011;32476;50.002;11.854;2024-03-06T05:39:27;52.77;;;21.87;;
46729;SDS011;32476;50.002;11.854;2024-03-06T05:41:59;48.10;;;21.53;;
46729;SDS011;32476;50.002;11.854;2024-03-06T05:44:34;52.47;;;23.50;;
46729;SDS011;32476;50.002;11.854;2024-03-06T05:47:00;57.73;;;22.67;;
46729;SDS011;32476;50.002;11.854;2024-03-06T05:49:28;56.87;;;23.23;;
46729;SDS011;32476;50.002;11.854;2024-03-06T05:51:56;54.70;;;22.83;;
46729;SDS011;32476;50.002;11.854;2024-03-06T05:54:22;54.43;;;22.00;;
46729;SDS011;32476;50.002;11.854;2024-03-06T05:56:48;50.70;;;22.13;;
46729;SDS011;32476;50.002;11.854;2024-03-06T05:59:18;47.37;;;21.13;;
46729;SDS011;32476;50.002;11.854;2024-03-06T06:01:44;51.97;;;22.10;;
46729;SDS011;32476;50.002;11.854;2024-03-06T06:04:13;50.50;;;20.53;;
46729;SDS011;32476;50.002;11.854;2024-03-06T06:06:41;47.97;;;20.47;;
46729;SDS011;32476;50.002;11.854;2024-03-06T06:09:07;50.20;;;20.67;;
46729;SDS011;32476;50.002;11.854;2024-03-06T06:11:38;52.77;;;21.73;;
46729;SDS011;32476;50.002;11.854;2024-03-06T06:14:06;41.53;;;20.17;;
46729;SDS011;32476;50.002;11.854;2024-03-06T06:16:38;42.43;;;19.53;;
46729;SDS011;32476;50.002;11.854;2024-03-06T06:19:10;47.07;;;19.23;;
46729;SDS011;32476;50.002;11.854;2024-03-06T06:21:36;46.30;;;20.77;;
46729;SDS011;32476;50.002;11.854;2024-03-06T06:24:03;48.17;;;21.27;;
46729;SDS011;32476;50.002;11.854;2024-03-06T06:26:31;48.67;;;20.37;;
46729;SDS011;32476;50.002;11.854;2024-03-06T06:28:57;53.60;;;22.20;;
46729;SDS011;32476;50.002;11.854;2024-03-06T06:31:23;49.43;;;22.20;;
46729;SDS011;32476;50.002;11.854;2024-03-06T06:33:53;54.13;;;24.43;;
46729;SDS011;32476;50.002;11.854;2024-03-06T06:36:18;47.53;;;21.53;;
46729;SDS011;32476;50.002;11.854;2024-03-06T06:38:45;47.13;;;21.50;;
46729;SDS011;32476;50.002;11.854;2024-03-06T06:41:17;50.00;;;20.93;;
46729;SDS011;32476;50.002;11.854;2024-03-06T06:43:43;42.57;;;19.17;;
46729;SDS011;32476;50.002;11.854;2024-03-06T06:46:08;34.67;;;17.37;;
46729;SDS011;32476;50.002;11.854;2024-03-06T06:48:36;33.83;;;14.70;;
46729;SDS011;32476;50.002;11.854;2024-03-06T06:51:02;35.03;;;16.03;;
46729;SDS011;32476;50.002;11.854;2024-03-06T06:53:29;35.57;;;16.13;;
46729;SDS011;32476;50.002;11.854;2024-03-06T06:55:59;32.67;;;15.17;;
46729;SDS011;32476;50.002;11.854;2024-03-06T06:58:25;31.73;;;15.03;;
46729;SDS011;32476;50.002;11.854;2024-03-06T07:00:54;33.00;;;16.23;;
46729;SDS011;32476;50.002;11.854;2024-03-06T07:03:21;30.17;;;13.63;;
46729;SDS011;32476;50.002;11.854;2024-03-06T07:05:48;30.10;;;15.07;;
46729;SDS011;32476;50.002;11.854;2024-03-06T07:08:14;31.33;;;14.87;;
46729;SDS011;32476;50.002;11.854;2024-03-06T07:10:41;34.40;;;16.77;;
46729;SDS011;32476;50.002;11.854;2024-03-06T07:13:07;32.90;;;15.53;;
46729;SDS011;32476;50.002;11.854;2024-03-06T07:15:33;32.03;;;14.60;;
46729;SDS011;32476;50.002;11.854;2024-03-06T07:18:00;33.67;;;16.13;;
46729;SDS011;32476;50.002;11.854;2024-03-06T07:20:26;29.70;;;13.83;;
46729;SDS011;32476;50.002;11.854;2024-03-06T07:22:52;29.87;;;14.60;;
46729;SDS011;32476;50.002;11.854;2024-03-06T07:25:20;33.13;;;14.80;;
46729;SDS011;32476;50.002;11.854;2024-03-06T07:27:46;32.57;;;14.80;;
46729;SDS011;32476;50.002;11.854;2024-03-06T07:30:12;30.90;;;15.27;;
46729;SDS011;32476;50.002;11.854;2024-03-06T07:32:40;35.27;;;16.40;;
46729;SDS011;32476;50.002;11.854;2024-03-06T07:35:06;34.13;;;16.93;;
46729;SDS011;32476;50.002;11.854;2024-03-06T07:37:33;32.80;;;16.07;;
46729;SDS011;32476;50.002;11.854;2024-03-06T07:40:00;31.60;;;15.40;;
46729;SDS011;32476;50.002;11.854;2024-03-06T07:42:26;34.07;;;16.23;;
46729;SDS011;32476;50.002;11.854;2024-03-06T07:44:52;34.23;;;15.83;;
46729;SDS011;32476;50.002;11.854;2024-03-06T07:47:20;36.17;;;16.10;;
46729;SDS011;32476;50.002;11.854;2024-03-06T07:49:46;30.30;;;15.07;;
46729;SDS011;32476;50.002;11.854;2024-03-06T07:52:12;32.50;;;15.93;;
46729;SDS011;32476;50.002;11.854;2024-03-06T07:54:39;32.90;;;15.20;;
46729;SDS011;32476;50.002;11.854;2024-03-06T07:57:05;27.57;;;14.77;;
46729;SDS011;32476;50.002;11.854;2024-03-06T07:59:31;31.57;;;15.60;;
46729;SDS011;32476;50.002;11.854;2024-03-06T08:01:58;27.97;;;14.60;;
46729;SDS011;32476;50.002;11.854;2024-03-06T08:04:24;28.00;;;14.03;;
46729;SDS011;32476;50.002;11.854;2024-03-06T08:06:51;28.53;;;13.67;;
46729;SDS011;32476;50.002;11.854;2024-03-06T08:09:19;25.63;;;13.73;;
46729;SDS011;32476;50.002;11.854;2024-03-06T08:11:45;27.60;;;14.00;;
46729;SDS011;32476;50.002;11.854;2024-03-06T08:14:11;30.67;;;15.37;;
46729;SDS011;32476;50.002;11.854;2024-03-06T08:16:41;27.83;;;13.30;;
46729;SDS011;32476;50.002;11.854;2024-03-06T08:19:07;31.67;;;14.23;;
46729;SDS011;32476;50.002;11.854;2024-03-06T08:21:33;28.10;;;13.23;;
46729;SDS011;32476;50.002;11.854;2024-03-06T08:24:01;27.17;;;13.83;;
46729;SDS011;32476;50.002;11.854;2024-03-06T08:26:27;29.87;;;13.40;;
46729;SDS011;32476;50.002;11.854;2024-03-06T08:28:53;27.83;;;14.13;;
46729;SDS011;32476;50.002;11.854;2024-03-06T08:31:20;25.47;;;13.43;;
46729;SDS011;32476;50.002;11.854;2024-03-06T08:33:46;30.77;;;14.03;;
46729;SDS011;32476;50.002;11.854;2024-03-06T08:36:13;27.40;;;14.60;;
46729;SDS011;32476;50.002;11.854;2024-03-06T08:38:40;27.87;;;13.80;;
46729;SDS011;32476;50.002;11.854;2024-03-06T08:41:06;30.23;;;14.17;;
46729;SDS011;32476;50.002;11.854;2024-03-06T08:43:32;29.93;;;14.23;;
46729;SDS011;32476;50.002;11.854;2024-03-06T08:46:00;33.07;;;14.70;;
46729;SDS011;32476;50.002;11.854;2024-03-06T08:48:26;25.97;;;12.63;;
46729;SDS011;32476;50.002;11.854;2024-03-06T08:50:52;25.87;;;13.63;;
46729;SDS011;32476;50.002;11.854;2024-03-06T08:53:19;24.73;;;12.73;;
46729;SDS011;32476;50.002;11.854;2024-03-06T08:55:46;28.57;;;13.60;;
46729;SDS011;32476;50.002;11.854;2024-03-06T08:58:12;30.43;;;13.70;;
46729;SDS011;32476;50.002;11.854;2024-03-06T09:00:40;26.17;;;12.60;;
46729;SDS011;32476;50.002;11.854;2024-03-06T09:03:06;26.33;;;13.30;;
46729;SDS011;32476;50.002;11.854;2024-03-06T09:05:32;22.93;;;12.60;;
46729;SDS011;32476;50.002;11.854;2024-03-06T09:08:01;23.07;;;11.77;;
46729;SDS011;32476;50.002;11.854;2024-03-06T09:10:27;28.17;;;13.80;;
46729;SDS011;32476;50.002;11.854;2024-03-06T09:12:54;27.20;;;12.77;;
46729;SDS011;32476;50.002;11.854;2024-03-06T09:15:21;28.73;;;13.03;;
46729;SDS011;32476;50.002;11.854;2024-03-06T09:17:47;23.10;;;12.37;;
46729;SDS011;32476;50.002;11.854;2024-03-06T09:20:14;22.03;;;12.63;;
46729;SDS011;32476;50.002;11.854;2024-03-06T09:22:43;22.70;;;11.97;;
46729;SDS011;32476;50.002;11.854;2024-03-06T09:25:09;22.47;;;11.83;;
46729;SDS011;32476;50.002;11.854;2024-03-06T09:27:38;22.63;;;11.93;;
46729;SDS011;32476;50.002;11.854;2024-03-06T09:30:06;21.50;;;12.07;;
46729;SDS011;32476;50.002;11.854;2024-03-06T09:32:34;23.97;;;12.37;;
46729;SDS011;32476;50.002;11.854;2024-03-06T09:35:00;26.80;;;13.33;;
46729;SDS011;32476;50.002;11.854;2024-03-06T09:37:28;24.10;;;12.27;;
46729;SDS011;32476;50.002;11.854;2024-03-06T09:39:54;26.17;;;11.93;;
46729;SDS011;32476;50.002;11.854;2024-03-06T09:42:21;21.97;;;11.53;;
46729;SDS011;32476;50.002;11.854;2024-03-06T09:44:50;20.60;;;12.40;;
46729;SDS011;32476;50.002;11.854;2024-03-06T09:47:16;24.33;;;12.93;;
46729;SDS011;32476;50.002;11.854;2024-03-06T09:49:50;23.40;;;12.20;;
46729;SDS011;32476;50.002;11.854;2024-03-06T09:52:19;24.47;;;12.90;;
46729;SDS011;32476;50.002;11.854;2024-03-06T09:54:47;23.83;;;11.90;;
46729;SDS011;32476;50.002;11.854;2024-03-06T09:57:15;20.50;;;11.67;;
46729;SDS011;32476;50.002;11.854;2024-03-06T09:59:41;24.83;;;13.23;;
46729;SDS011;32476;50.002;11.854;2024-03-06T10:02:18;25.33;;;12.77;;
46729;SDS011;32476;50.002;11.854;2024-03-06T10:04:57;24.67;;;11.90;;
46729;SDS011;32476;50.002;11.854;2024-03-06T10:07:23;25.70;;;13.03;;
46729;SDS011;32476;50.002;11.854;2024-03-06T10:09:49;24.27;;;12.07;;
46729;SDS011;32476;50.002;11.854;2024-03-06T10:12:17;24.67;;;12.50;;
46729;SDS011;32476;50.002;11.854;2024-03-06T10:14:50;24.90;;;13.30;;
46729;SDS011;32476;50.002;11.854;2024-03-06T10:17:21;27.93;;;13.70;;
46729;SDS011;32476;50.002;11.854;2024-03-06T10:19:52;24.67;;;13.77;;
46729;SDS011;32476;50.002;11.854;2024-03-06T10:22:18;25.90;;;12.50;;
46729;SDS011;32476;50.002;11.854;2024-03-06T10:24:47;24.17;;;12.77;;
46729;SDS011;32476;50.002;11.854;2024-03-06T10:27:14;23.17;;;12.20;;
46729;SDS011;32476;50.002;11.854;2024-03-06T10:29:44;23.63;;;12.73;;
46729;SDS011;32476;50.002;11.854;2024-03-06T10:32:15;24.37;;;11.67;;
46729;SDS011;32476;50.002;11.854;2024-03-06T10:34:44;24.37;;;13.70;;
46729;SDS011;32476;50.002;11.854;2024-03-06T10:37:12;22.07;;;12.37;;
46729;SDS011;32476;50.002;11.854;2024-03-06T10:39:41;23.60;;;11.73;;
46729;SDS011;32476;50.002;11.854;2024-03-06T10:42:09;25.63;;;12.90;;
46729;SDS011;32476;50.002;11.854;2024-03-06T10:44:48;28.83;;;12.70;;
46729;SDS011;32476;50.002;11.854;2024-03-06T10:47:21;23.43;;;12.70;;
46729;SDS011;32476;50.002;11.854;2024-03-06T10:49:53;23.87;;;13.07;;
46729;SDS011;32476;50.002;11.854;2024-03-06T10:52:25;24.37;;;13.47;;
46729;SDS011;32476;50.002;11.854;2024-03-06T10:54:54;26.50;;;13.80;;
46729;SDS011;32476;50.002;11.854;2024-03-06T10:57:24;27.40;;;14.47;;
46729;SDS011;32476;50.002;11.854;2024-03-06T10:59:51;27.73;;;15.43;;
46729;SDS011;32476;50.002;11.854;2024-03-06T11:02:19;26.90;;;13.37;;
46729;SDS011;32476;50.002;11.854;2024-03-06T11:04:48;27.60;;;14.30;;
46729;SDS011;32476;50.002;11.854;2024-03-06T11:07:16;28.93;;;13.83;;
46729;SDS011;32476;50.002;11.854;2024-03-06T11:09:43;29.17;;;16.57;;
46729;SDS011;32476;50.002;11.854;2024-03-06T11:12:09;29.10;;;16.27;;
46729;SDS011;32476;50.002;11.854;2024-03-06T11:14:37;24.67;;;13.17;;
46729;SDS011;32476;50.002;11.854;2024-03-06T11:17:06;28.17;;;13.50;;
46729;SDS011;32476;50.002;11.854;2024-03-06T11:28:17;24.07;;;12.13;;
46729;SDS011;32476;50.002;11.854;2024-03-06T11:30:45;22.77;;;12.07;;
46729;SDS011;32476;50.002;11.854;2024-03-06T11:33:39;23.77;;;12.80;;
46729;SDS011;32476;50.002;11.854;2024-03-06T11:36:22;21.47;;;12.27;;
46729;SDS011;32476;50.002;11.854;2024-03-06T11:41:24;22.10;;;12.47;;
46729;SDS011;32476;50.002;11.854;2024-03-06T11:44:01;20.47;;;12.00;;
46729;SDS011;32476;50.002;11.854;2024-03-06T11:49:20;22.70;;;11.53;;
46729;SDS011;32476;50.002;11.854;2024-03-06T11:51:51;24.57;;;12.03;;
46729;SDS011;32476;50.002;11.854;2024-03-06T11:54:20;23.80;;;12.17;;
46729;SDS011;32476;50.002;11.854;2024-03-06T11:56:56;23.57;;;12.50;;
46729;SDS011;32476;50.002;11.854;2024-03-06T11:59:26;21.90;;;12.23;;
46729;SDS011;32476;50.002;11.854;2024-03-06T12:01:58;22.83;;;11.63;;
46729;SDS011;32476;50.002;11.854;2024-03-06T12:04:34;22.73;;;12.47;;
46729;SDS011;32476;50.002;11.854;2024-03-06T12:07:04;20.47;;;12.47;;
46729;SDS011;32476;50.002;11.854;2024-03-06T12:09:31;19.43;;;11.63;;
46729;SDS011;32476;50.002;11.854;2024-03-06T12:12:04;22.37;;;12.30;;
46729;SDS011;32476;50.002;11.854;2024-03-06T12:14:34;22.17;;;12.10;;
46729;SDS011;32476;50.002;11.854;2024-03-06T12:17:01;25.30;;;16.13;;
46729;SDS011;32476;50.002;11.854;2024-03-06T12:19:34;17.90;;;10.87;;
46729;SDS011;32476;50.002;11.854;2024-03-06T12:22:01;20.37;;;11.53;;
46729;SDS011;32476;50.002;11.854;2024-03-06T12:24:31;22.70;;;12.37;;
46729;SDS011;32476;50.002;11.854;2024-03-06T12:27:02;21.90;;;13.07;;
46729;SDS011;32476;50.002;11.854;2024-03-06T12:29:30;25.10;;;13.80;;
46729;SDS011;32476;50.002;11.854;2024-03-06T12:31:59;23.80;;;13.73;;
46729;SDS011;32476;50.002;11.854;2024-03-06T12:34:26;23.73;;;13.33;;
46729;SDS011;32476;50.002;11.854;2024-03-06T12:36:52;25.97;;;14.17;;
46729;SDS011;32476;50.002;11.854;2024-03-06T12:39:19;25.67;;;13.67;;
46729;SDS011;32476;50.002;11.854;2024-03-06T12:41:51;23.83;;;13.27;;
46729;SDS011;32476;50.002;11.854;2024-03-06T12:44:19;25.10;;;13.70;;
46729;SDS011;32476;50.002;11.854;2024-03-06T12:46:47;25.23;;;13.70;;
46729;SDS011;32476;50.002;11.854;2024-03-06T12:49:14;25.67;;;14.70;;
46729;SDS011;32476;50.002;11.854;2024-03-06T12:51:40;30.13;;;17.47;;
46729;SDS011;32476;50.002;11.854;2024-03-06T12:54:07;31.27;;;17.77;;
46729;SDS011;32476;50.002;11.854;2024-03-06T12:56:34;29.67;;;17.10;;
46729;SDS011;32476;50.002;11.854;2024-03-06T12:58:59;32.03;;;18.10;;
46729;SDS011;32476;50.002;11.854;2024-03-06T13:01:27;30.87;;;17.90;;
46729;SDS011;32476;50.002;11.854;2024-03-06T13:03:53;29.37;;;17.13;;
46729;SDS011;32476;50.002;11.854;2024-03-06T13:06:19;29.30;;;16.93;;
46729;SDS011;32476;50.002;11.854;2024-03-06T13:08:46;29.27;;;16.90;;
46729;SDS011;32476;50.002;11.854;2024-03-06T13:11:12;31.00;;;18.20;;
46729;SDS011;32476;50.002;11.854;2024-03-06T13:13:38;30.13;;;17.10;;
46729;SDS011;32476;50.002;11.854;2024-03-06T13:16:05;27.77;;;15.93;;
46729;SDS011;32476;50.002;11.854;2024-03-06T13:18:31;27.30;;;14.90;;
46729;SDS011;32476;50.002;11.854;2024-03-06T13:20:57;28.53;;;15.67;;
46729;SDS011;32476;50.002;11.854;2024-03-06T13:23:27;32.03;;;17.30;;
46729;SDS011;32476;50.002;11.854;2024-03-06T13:25:53;30.63;;;16.43;;
46729;SDS011;32476;50.002;11.854;2024-03-06T13:28:19;31.43;;;15.57;;
46729;SDS011;32476;50.002;11.854;2024-03-06T13:30:47;32.57;;;17.03;;
46729;SDS011;32476;50.002;11.854;2024-03-06T13:33:15;48.63;;;23.00;;
46729;SDS011;32476;50.002;11.854;2024-03-06T13:35:41;32.40;;;16.67;;
46729;SDS011;32476;50.002;11.854;2024-03-06T13:38:09;33.23;;;16.87;;
46729;SDS011;32476;50.002;11.854;2024-03-06T13:40:35;33.23;;;18.20;;
46729;SDS011;32476;50.002;11.854;2024-03-06T13:43:01;32.33;;;16.77;;
46729;SDS011;32476;50.002;11.854;2024-03-06T13:45:29;26.17;;;15.47;;
46729;SDS011;32476;50.002;11.854;2024-03-06T13:47:54;34.27;;;19.20;;
46729;SDS011;32476;50.002;11.854;2024-03-06T13:50:20;29.90;;;16.53;;
46729;SDS011;32476;50.002;11.854;2024-03-06T13:52:50;26.50;;;13.37;;
46729;SDS011;32476;50.002;11.854;2024-03-06T13:55:16;29.83;;;13.53;;
46729;SDS011;32476;50.002;11.854;2024-03-06T13:57:43;22.20;;;12.43;;
46729;SDS011;32476;50.002;11.854;2024-03-06T14:00:10;26.37;;;13.73;;
46729;SDS011;32476;50.002;11.854;2024-03-06T14:02:43;25.73;;;14.43;;
46729;SDS011;32476;50.002;11.854;2024-03-06T14:05:14;29.27;;;15.50;;
46729;SDS011;32476;50.002;11.854;2024-03-06T14:07:40;26.67;;;15.33;;
46729;SDS011;32476;50.002;11.854;2024-03-06T14:10:07;29.73;;;17.10;;
46729;SDS011;32476;50.002;11.854;2024-03-06T14:12:37;33.27;;;19.03;;
46729;SDS011;32476;50.002;11.854;2024-03-06T14:15:07;32.27;;;17.97;;
46729;SDS011;32476;50.002;11.854;2024-03-06T14:17:39;37.30;;;19.07;;
46729;SDS011;32476;50.002;11.854;2024-03-06T14:20:05;34.67;;;19.90;;
46729;SDS011;32476;50.002;11.854;2024-03-06T14:22:31;35.37;;;19.50;;
46729;SDS011;32476;50.002;11.854;2024-03-06T14:24:59;35.13;;;18.77;;
46729;SDS011;32476;50.002;11.854;2024-03-06T14:27:25;32.57;;;18.97;;